sensor_id;sensor_type;location;lat;lon;timestamp;pressure;altitude;pressure_sealevel;temperature;humidity
50282;BME280;36176;51.506;10.272;2023-07-13T00:01:55;99295.94;;;13.69;83.91
50282;BME280;36176;51.506;10.272;2023-07-13T00:04:24;99297.84;;;13.67;83.73
50282;BME280;36176;51.506;10.272;2023-07-13T00:06:53;99301.66;;;13.63;83.79
50282;BME280;36176;51.506;10.272;2023-07-13T00:09:21;99305.38;;;13.60;84.33
50282;BME280;36176;51.506;10.272;2023-07-13T00:11:57;99308.19;;;13.57;84.76
50282;BME280;36176;51.506;10.272;2023-07-13T00:14:26;99318.97;;;13.55;84.43
50282;BME280;36176;51.506;10.272;2023-07-13T00:16:53;99315.63;;;13.52;84.04
50282;BME280;36176;51.506;10.272;2023-07-13T00:19:21;99322.84;;;13.50;84.43
50282;BME280;36176;51.506;10.272;2023-07-13T00:21:48;99314.00;;;13.49;84.39
50282;BME280;36176;51.506;10.272;2023-07-13T00:24:17;99311.34;;;13.49;84.69
50282;BME280;36176;51.506;10.272;2023-07-13T00:26:51;99314.28;;;13.45;85.12
50282;BME280;36176;51.506;10.272;2023-07-13T00:29:18;99323.41;;;13.40;85.26
50282;BME280;36176;51.506;10.272;2023-07-13T00:31:48;99327.88;;;13.40;85.29
50282;BME280;36176;51.506;10.272;2023-07-13T00:34:15;99313.25;;;13.47;85.05
50282;BME280;36176;51.506;10.272;2023-07-13T00:36:42;99307.56;;;13.53;84.58
50282;BME280;36176;51.506;10.272;2023-07-13T00:39:09;99310.00;;;13.56;84.85
50282;BME280;36176;51.506;10.272;2023-07-13T00:41:36;99309.94;;;13.58;84.35
50282;BME280;36176;51.506;10.272;2023-07-13T00:44:04;99316.09;;;13.58;84.69
50282;BME280;36176;51.506;10.272;2023-07-13T00:46:33;99314.56;;;13.54;84.80
50282;BME280;36176;51.506;10.272;2023-07-13T00:49:05;99305.81;;;13.52;84.62
50282;BME280;36176;51.506;10.272;2023-07-13T00:51:39;99306.31;;;13.45;84.20
50282;BME280;36176;51.506;10.272;2023-07-13T00:54:10;99310.22;;;13.39;84.91
50282;BME280;36176;51.506;10.272;2023-07-13T00:56:41;99309.44;;;13.37;84.59
50282;BME280;36176;51.506;10.272;2023-07-13T00:59:10;99301.31;;;13.24;85.93
50282;BME280;36176;51.506;10.272;2023-07-13T01:01:38;99306.16;;;13.17;86.26
50282;BME280;36176;51.506;10.272;2023-07-13T01:04:06;99315.84;;;13.18;86.46
50282;BME280;36176;51.506;10.272;2023-07-13T01:06:36;99311.28;;;13.20;86.68
50282;BME280;36176;51.506;10.272;2023-07-13T01:09:05;99313.75;;;13.24;85.78
50282;BME280;36176;51.506;10.272;2023-07-13T01:11:33;99314.47;;;13.27;85.53
50282;BME280;36176;51.506;10.272;2023-07-13T01:14:02;99314.34;;;13.29;85.77
50282;BME280;36176;51.506;10.272;2023-07-13T01:16:33;99309.38;;;13.23;86.00
50282;BME280;36176;51.506;10.272;2023-07-13T01:19:01;99307.66;;;13.22;85.73
50282;BME280;36176;51.506;10.272;2023-07-13T01:21:33;99311.28;;;13.20;85.99
50282;BME280;36176;51.506;10.272;2023-07-13T01:24:00;99319.34;;;13.19;86.23
50282;BME280;36176;51.506;10.272;2023-07-13T01:26:29;99318.31;;;13.22;86.07
50282;BME280;36176;51.506;10.272;2023-07-13T01:28:56;99319.25;;;13.20;85.97
50282;BME280;36176;51.506;10.272;2023-07-13T01:31:23;99318.31;;;13.22;85.96
50282;BME280;36176;51.506;10.272;2023-07-13T01:33:51;99310.31;;;13.22;85.56
50282;BME280;36176;51.506;10.272;2023-07-13T01:36:18;99303.38;;;13.19;86.03
50282;BME280;36176;51.506;10.272;2023-07-13T01:38:48;99303.66;;;13.14;85.60
50282;BME280;36176;51.506;10.272;2023-07-13T01:41:15;99302.72;;;13.15;85.90
50282;BME280;36176;51.506;10.272;2023-07-13T01:43:42;99297.69;;;13.11;85.99
50282;BME280;36176;51.506;10.272;2023-07-13T01:46:10;99302.50;;;13.04;86.64
50282;BME280;36176;51.506;10.272;2023-07-13T01:48:49;99308.97;;;13.00;86.76
50282;BME280;36176;51.506;10.272;2023-07-13T01:51:17;99311.91;;;12.95;87.28
50282;BME280;36176;51.506;10.272;2023-07-13T01:53:44;99318.81;;;12.84;87.72
50282;BME280;36176;51.506;10.272;2023-07-13T01:56:12;99318.50;;;12.74;87.50
50282;BME280;36176;51.506;10.272;2023-07-13T01:58:40;99318.00;;;12.67;88.38
50282;BME280;36176;51.506;10.272;2023-07-13T02:01:07;99319.09;;;12.63;88.17
50282;BME280;36176;51.506;10.272;2023-07-13T02:03:34;99309.50;;;12.61;87.83
50282;BME280;36176;51.506;10.272;2023-07-13T02:06:01;99313.22;;;12.58;87.52
50282;BME280;36176;51.506;10.272;2023-07-13T02:08:29;99319.63;;;12.54;88.23
50282;BME280;36176;51.506;10.272;2023-07-13T02:10:56;99309.19;;;12.51;88.69
50282;BME280;36176;51.506;10.272;2023-07-13T02:13:23;99309.44;;;12.46;88.62
50282;BME280;36176;51.506;10.272;2023-07-13T02:15:51;99312.38;;;12.42;89.31
50282;BME280;36176;51.506;10.272;2023-07-13T02:18:18;99303.63;;;12.40;89.51
50282;BME280;36176;51.506;10.272;2023-07-13T02:20:45;99308.28;;;12.36;89.10
50282;BME280;36176;51.506;10.272;2023-07-13T02:23:13;99314.03;;;12.28;90.41
50282;BME280;36176;51.506;10.272;2023-07-13T02:25:40;99315.59;;;12.17;90.28
50282;BME280;36176;51.506;10.272;2023-07-13T02:28:08;99314.88;;;12.13;91.34
50282;BME280;36176;51.506;10.272;2023-07-13T02:30:35;99308.78;;;12.11;91.75
50282;BME280;36176;51.506;10.272;2023-07-13T02:33:03;99305.72;;;12.19;91.83
50282;BME280;36176;51.506;10.272;2023-07-13T02:35:30;99304.16;;;12.30;91.45
50282;BME280;36176;51.506;10.272;2023-07-13T02:37:58;99302.13;;;12.36;90.91
50282;BME280;36176;51.506;10.272;2023-07-13T02:40:25;99293.84;;;12.40;90.44
50282;BME280;36176;51.506;10.272;2023-07-13T02:42:52;99293.84;;;12.40;90.46
50282;BME280;36176;51.506;10.272;2023-07-13T02:45:19;99296.50;;;12.40;90.43
50282;BME280;36176;51.506;10.272;2023-07-13T02:47:46;99289.56;;;12.38;90.17
50282;BME280;36176;51.506;10.272;2023-07-13T02:50:13;99294.16;;;12.36;90.07
50282;BME280;36176;51.506;10.272;2023-07-13T02:52:40;99291.63;;;12.32;90.43
50282;BME280;36176;51.506;10.272;2023-07-13T02:55:08;99298.09;;;12.28;90.43
50282;BME280;36176;51.506;10.272;2023-07-13T02:57:35;99294.75;;;12.25;90.12
50282;BME280;36176;51.506;10.272;2023-07-13T03:00:03;99294.81;;;12.23;90.40
50282;BME280;36176;51.506;10.272;2023-07-13T03:02:34;99294.81;;;12.23;90.32
50282;BME280;36176;51.506;10.272;2023-07-13T03:05:01;99291.50;;;12.20;90.25
50282;BME280;36176;51.506;10.272;2023-07-13T03:07:29;99295.19;;;12.17;90.48
50282;BME280;36176;51.506;10.272;2023-07-13T03:09:58;99303.16;;;12.17;90.55
50282;BME280;36176;51.506;10.272;2023-07-13T03:12:26;99296.88;;;12.18;90.82
50282;BME280;36176;51.506;10.272;2023-07-13T03:14:53;99305.81;;;12.17;90.96
50282;BME280;36176;51.506;10.272;2023-07-13T03:17:20;99305.63;;;12.20;90.98
50282;BME280;36176;51.506;10.272;2023-07-13T03:19:47;99303.75;;;12.22;91.02
50282;BME280;36176;51.506;10.272;2023-07-13T03:22:19;99315.13;;;12.24;91.39
50282;BME280;36176;51.506;10.272;2023-07-13T03:24:46;99307.75;;;12.29;91.28
50282;BME280;36176;51.506;10.272;2023-07-13T03:27:16;99306.66;;;12.33;91.67
50282;BME280;36176;51.506;10.272;2023-07-13T03:29:44;99308.16;;;12.38;92.32
50282;BME280;36176;51.506;10.272;2023-07-13T03:32:11;99319.41;;;12.43;92.28
50282;BME280;36176;51.506;10.272;2023-07-13T03:34:38;99316.06;;;12.55;92.38
50282;BME280;36176;51.506;10.272;2023-07-13T03:37:05;99320.72;;;12.66;92.13
50282;BME280;36176;51.506;10.272;2023-07-13T03:39:33;99327.22;;;12.76;91.73
50282;BME280;36176;51.506;10.272;2023-07-13T03:42:00;99322.13;;;12.87;91.73
50282;BME280;36176;51.506;10.272;2023-07-13T03:44:27;99328.91;;;12.93;91.41
50282;BME280;36176;51.506;10.272;2023-07-13T03:46:54;99321.50;;;12.98;91.13
50282;BME280;36176;51.506;10.272;2023-07-13T03:49:22;99325.94;;;12.97;90.57
50282;BME280;36176;51.506;10.272;2023-07-13T03:51:49;99330.25;;;13.00;90.99
50282;BME280;36176;51.506;10.272;2023-07-13T03:54:20;99334.69;;;12.99;91.17
50282;BME280;36176;51.506;10.272;2023-07-13T03:56:47;99330.25;;;13.00;90.71
50282;BME280;36176;51.506;10.272;2023-07-13T03:59:14;99333.00;;;12.98;90.40
50282;BME280;36176;51.506;10.272;2023-07-13T04:01:41;99334.88;;;12.96;90.42
50282;BME280;36176;51.506;10.272;2023-07-13T04:04:08;99340.22;;;12.96;90.00
50282;BME280;36176;51.506;10.272;2023-07-13T04:06:35;99340.22;;;12.96;90.06
50282;BME280;36176;51.506;10.272;2023-07-13T04:09:03;99340.13;;;12.98;90.04
50282;BME280;36176;51.506;10.272;2023-07-13T04:11:33;99346.03;;;13.03;89.87
50282;BME280;36176;51.506;10.272;2023-07-13T04:14:03;99351.16;;;13.06;90.29
50282;BME280;36176;51.506;10.272;2023-07-13T04:16:31;99358.69;;;13.14;90.56
50282;BME280;36176;51.506;10.272;2023-07-13T04:18:58;99361.75;;;13.22;90.83
50282;BME280;36176;51.506;10.272;2023-07-13T04:21:30;99356.00;;;13.30;90.42
50282;BME280;36176;51.506;10.272;2023-07-13T04:23:57;99365.25;;;13.38;90.43
50282;BME280;36176;51.506;10.272;2023-07-13T04:26:25;99368.28;;;13.47;90.14
50282;BME280;36176;51.506;10.272;2023-07-13T04:28:52;99369.81;;;13.65;90.01
50282;BME280;36176;51.506;10.272;2023-07-13T04:31:20;99372.00;;;13.87;89.34
50282;BME280;36176;51.506;10.272;2023-07-13T04:33:48;99370.75;;;14.07;88.95
50282;BME280;36176;51.506;10.272;2023-07-13T04:36:16;99368.75;;;14.25;88.39
50282;BME280;36176;51.506;10.272;2023-07-13T04:38:43;99369.66;;;14.38;88.30
50282;BME280;36176;51.506;10.272;2023-07-13T04:41:12;99368.59;;;14.55;87.58
50282;BME280;36176;51.506;10.272;2023-07-13T04:43:40;99371.31;;;14.68;87.58
50282;BME280;36176;51.506;10.272;2023-07-13T04:46:09;99381.19;;;14.80;87.28
50282;BME280;36176;51.506;10.272;2023-07-13T04:48:39;99385.69;;;14.93;86.69
50282;BME280;36176;51.506;10.272;2023-07-13T04:51:07;99382.41;;;15.02;86.39
50282;BME280;36176;51.506;10.272;2023-07-13T04:53:34;99386.25;;;15.10;85.78
50282;BME280;36176;51.506;10.272;2023-07-13T04:56:03;99380.22;;;15.21;85.75
50282;BME280;36176;51.506;10.272;2023-07-13T04:58:30;99387.47;;;15.32;85.42
50282;BME280;36176;51.506;10.272;2023-07-13T05:01:02;99390.19;;;15.45;85.46
50282;BME280;36176;51.506;10.272;2023-07-13T05:03:30;99391.34;;;15.53;84.67
50282;BME280;36176;51.506;10.272;2023-07-13T05:06:01;99394.81;;;15.81;84.71
50282;BME280;36176;51.506;10.272;2023-07-13T05:08:28;99394.13;;;16.16;83.65
50282;BME280;36176;51.506;10.272;2023-07-13T05:10:55;99391.00;;;16.35;81.93
50282;BME280;36176;51.506;10.272;2023-07-13T05:13:23;99392.56;;;16.50;81.17
50282;BME280;36176;51.506;10.272;2023-07-13T05:15:58;99405.78;;;16.65;80.29
50282;BME280;36176;51.506;10.272;2023-07-13T05:18:26;99408.63;;;16.74;79.88
50282;BME280;36176;51.506;10.272;2023-07-13T05:20:59;99404.34;;;16.85;80.05
50282;BME280;36176;51.506;10.272;2023-07-13T05:23:26;99406.94;;;16.97;79.75
50282;BME280;36176;51.506;10.272;2023-07-13T05:25:53;99398.09;;;17.32;78.63
50282;BME280;36176;51.506;10.272;2023-07-13T05:28:21;99392.50;;;17.93;76.91
50282;BME280;36176;51.506;10.272;2023-07-13T05:30:49;99397.00;;;18.38;74.83
50282;BME280;36176;51.506;10.272;2023-07-13T05:33:17;99391.63;;;18.49;73.66
50282;BME280;36176;51.506;10.272;2023-07-13T05:35:44;99400.63;;;18.48;72.99
50282;BME280;36176;51.506;10.272;2023-07-13T05:38:11;99402.59;;;18.46;73.49
50282;BME280;36176;51.506;10.272;2023-07-13T05:40:38;99410.31;;;18.28;74.33
50282;BME280;36176;51.506;10.272;2023-07-13T05:43:05;99403.34;;;18.14;73.44
50282;BME280;36176;51.506;10.272;2023-07-13T05:45:32;99407.88;;;18.14;73.66
50282;BME280;36176;51.506;10.272;2023-07-13T05:47:59;99406.50;;;18.31;73.45
50282;BME280;36176;51.506;10.272;2023-07-13T05:50:27;99409.31;;;18.52;73.06
50282;BME280;36176;51.506;10.272;2023-07-13T05:52:54;99405.72;;;18.74;72.12
50282;BME280;36176;51.506;10.272;2023-07-13T05:55:22;99406.75;;;19.37;72.17
50282;BME280;36176;51.506;10.272;2023-07-13T05:57:49;99412.81;;;20.02;69.68
50282;BME280;36176;51.506;10.272;2023-07-13T06:00:16;99406.00;;;20.29;67.35
50282;BME280;36176;51.506;10.272;2023-07-13T06:02:43;99419.56;;;20.58;67.08
50282;BME280;36176;51.506;10.272;2023-07-13T06:05:11;99417.44;;;21.41;67.01
50282;BME280;36176;51.506;10.272;2023-07-13T06:07:38;99415.50;;;22.37;64.05
50282;BME280;36176;51.506;10.272;2023-07-13T06:10:05;99408.88;;;23.23;57.29
50282;BME280;36176;51.506;10.272;2023-07-13T06:12:33;99410.94;;;23.91;54.83
50282;BME280;36176;51.506;10.272;2023-07-13T06:15:00;99413.84;;;24.66;50.67
50282;BME280;36176;51.506;10.272;2023-07-13T06:17:27;99411.13;;;25.17;45.91
50282;BME280;36176;51.506;10.272;2023-07-13T06:19:54;99413.69;;;25.59;44.97
50282;BME280;36176;51.506;10.272;2023-07-13T06:22:21;99411.41;;;26.12;44.31
50282;BME280;36176;51.506;10.272;2023-07-13T06:24:48;99404.69;;;26.47;42.35
50282;BME280;36176;51.506;10.272;2023-07-13T06:27:16;99409.94;;;26.88;40.84
50282;BME280;36176;51.506;10.272;2023-07-13T06:29:43;99409.63;;;26.83;39.96
50282;BME280;36176;51.506;10.272;2023-07-13T06:32:12;99425.59;;;27.09;40.85
50282;BME280;36176;51.506;10.272;2023-07-13T06:34:39;99421.09;;;27.25;38.35
50282;BME280;36176;51.506;10.272;2023-07-13T06:37:09;99416.63;;;27.55;37.84
50282;BME280;36176;51.506;10.272;2023-07-13T06:39:36;99418.94;;;27.81;37.71
50282;BME280;36176;51.506;10.272;2023-07-13T06:42:05;99429.16;;;28.02;37.40
50282;BME280;36176;51.506;10.272;2023-07-13T06:44:32;99424.06;;;27.99;36.80
50282;BME280;36176;51.506;10.272;2023-07-13T06:46:59;99419.19;;;28.09;36.41
50282;BME280;36176;51.506;10.272;2023-07-13T06:49:26;99422.56;;;27.96;35.85
50282;BME280;36176;51.506;10.272;2023-07-13T06:51:54;99428.22;;;28.25;36.90
50282;BME280;36176;51.506;10.272;2023-07-13T06:54:22;99431.72;;;28.48;35.37
50282;BME280;36176;51.506;10.272;2023-07-13T06:56:49;99433.69;;;28.54;36.51
50282;BME280;36176;51.506;10.272;2023-07-13T06:59:16;99437.59;;;28.81;34.61
50282;BME280;36176;51.506;10.272;2023-07-13T07:01:44;99436.38;;;28.84;34.81
50282;BME280;36176;51.506;10.272;2023-07-13T07:04:11;99432.59;;;28.85;34.51
50282;BME280;36176;51.506;10.272;2023-07-13T07:06:38;99438.53;;;28.89;35.51
50282;BME280;36176;51.506;10.272;2023-07-13T07:09:05;99439.53;;;29.02;33.89
50282;BME280;36176;51.506;10.272;2023-07-13T07:11:32;99430.34;;;29.25;33.67
50282;BME280;36176;51.506;10.272;2023-07-13T07:13:59;99437.19;;;29.36;34.45
50282;BME280;36176;51.506;10.272;2023-07-13T07:16:26;99436.47;;;29.48;32.98
50282;BME280;36176;51.506;10.272;2023-07-13T07:18:54;99442.00;;;29.55;33.86
50282;BME280;36176;51.506;10.272;2023-07-13T07:21:21;99429.44;;;29.39;33.31
50282;BME280;36176;51.506;10.272;2023-07-13T07:23:51;99428.84;;;29.65;33.25
50282;BME280;36176;51.506;10.272;2023-07-13T07:26:20;99431.50;;;29.80;32.12
50282;BME280;36176;51.506;10.272;2023-07-13T07:28:51;99424.69;;;29.98;31.10
50282;BME280;36176;51.506;10.272;2023-07-13T07:31:38;99431.28;;;30.03;30.50
50282;BME280;36176;51.506;10.272;2023-07-13T07:34:08;99435.03;;;30.02;30.61
50282;BME280;36176;51.506;10.272;2023-07-13T07:36:36;99441.13;;;30.04;29.86
50282;BME280;36176;51.506;10.272;2023-07-13T07:39:06;99431.81;;;30.20;29.98
50282;BME280;36176;51.506;10.272;2023-07-13T07:41:33;99442.63;;;30.35;29.81
50282;BME280;36176;51.506;10.272;2023-07-13T07:44:04;99431.19;;;30.25;30.08
50282;BME280;36176;51.506;10.272;2023-07-13T07:46:31;99436.19;;;30.49;29.15
50282;BME280;36176;51.506;10.272;2023-07-13T07:48:58;99431.34;;;30.45;29.92
50282;BME280;36176;51.506;10.272;2023-07-13T07:51:26;99434.00;;;30.31;29.99
50282;BME280;36176;51.506;10.272;2023-07-13T07:53:53;99429.44;;;30.45;29.54
50282;BME280;36176;51.506;10.272;2023-07-13T07:56:21;99423.59;;;30.55;28.89
50282;BME280;36176;51.506;10.272;2023-07-13T07:58:51;99435.25;;;30.29;30.08
50282;BME280;36176;51.506;10.272;2023-07-13T08:01:21;99432.91;;;30.61;32.31
50282;BME280;36176;51.506;10.272;2023-07-13T08:03:52;99436.81;;;30.93;30.96
50282;BME280;36176;51.506;10.272;2023-07-13T08:06:23;99441.28;;;30.94;30.40
50282;BME280;36176;51.506;10.272;2023-07-13T08:08:53;99433.69;;;31.03;29.82
50282;BME280;36176;51.506;10.272;2023-07-13T08:11:21;99437.75;;;31.20;29.33
50282;BME280;36176;51.506;10.272;2023-07-13T08:13:51;99434.00;;;31.34;29.19
50282;BME280;36176;51.506;10.272;2023-07-13T08:16:22;99436.78;;;31.74;29.60
50282;BME280;36176;51.506;10.272;2023-07-13T08:18:50;99431.28;;;32.28;29.03
50282;BME280;36176;51.506;10.272;2023-07-13T08:21:19;99440.50;;;32.53;27.52
50282;BME280;36176;51.506;10.272;2023-07-13T08:23:49;99441.56;;;32.39;27.23
50282;BME280;36176;51.506;10.272;2023-07-13T08:26:16;99442.91;;;31.63;27.76
50282;BME280;36176;51.506;10.272;2023-07-13T08:28:43;99446.84;;;30.72;30.20
50282;BME280;36176;51.506;10.272;2023-07-13T08:31:10;99440.59;;;29.87;31.84
50282;BME280;36176;51.506;10.272;2023-07-13T08:33:38;99437.13;;;29.51;32.25
50282;BME280;36176;51.506;10.272;2023-07-13T08:36:08;99446.84;;;29.02;31.61
50282;BME280;36176;51.506;10.272;2023-07-13T08:38:35;99437.22;;;28.84;32.21
50282;BME280;36176;51.506;10.272;2023-07-13T08:41:10;99439.84;;;29.29;32.11
50282;BME280;36176;51.506;10.272;2023-07-13T08:43:38;99440.31;;;30.04;30.88
50282;BME280;36176;51.506;10.272;2023-07-13T08:46:37;99448.84;;;29.94;31.45
50282;BME280;36176;51.506;10.272;2023-07-13T08:49:11;99451.63;;;29.73;30.89
50282;BME280;36176;51.506;10.272;2023-07-13T08:52:26;99451.28;;;29.39;30.16
50282;BME280;36176;51.506;10.272;2023-07-13T08:54:38;99447.38;;;29.27;30.67
50282;BME280;36176;51.506;10.272;2023-07-13T08:57:15;99450.19;;;28.97;30.66
50282;BME280;36176;51.506;10.272;2023-07-13T08:59:43;99446.97;;;28.94;32.37
50282;BME280;36176;51.506;10.272;2023-07-13T09:05:02;99443.31;;;30.16;30.90
50282;BME280;36176;51.506;10.272;2023-07-13T09:07:50;99438.84;;;30.78;29.07
50282;BME280;36176;51.506;10.272;2023-07-13T09:10:46;99437.59;;;30.32;29.87
50282;BME280;36176;51.506;10.272;2023-07-13T09:13:26;99445.22;;;30.15;30.92
50282;BME280;36176;51.506;10.272;2023-07-13T09:15:59;99438.28;;;30.47;30.99
50282;BME280;36176;51.506;10.272;2023-07-13T09:18:36;99446.41;;;30.76;31.11
50282;BME280;36176;51.506;10.272;2023-07-13T09:21:13;99441.66;;;30.49;29.39
50282;BME280;36176;51.506;10.272;2023-07-13T09:23:43;99437.50;;;30.53;28.91
50282;BME280;36176;51.506;10.272;2023-07-13T09:26:19;99447.81;;;30.65;28.97
50282;BME280;36176;51.506;10.272;2023-07-13T09:28:54;99451.13;;;30.47;29.72
50282;BME280;36176;51.506;10.272;2023-07-13T09:31:36;99446.28;;;29.43;31.04
50282;BME280;36176;51.506;10.272;2023-07-13T09:34:09;99449.81;;;28.86;30.92
50282;BME280;36176;51.506;10.272;2023-07-13T09:36:37;99447.22;;;28.33;31.65
50282;BME280;36176;51.506;10.272;2023-07-13T09:39:12;99445.31;;;27.81;34.83
50282;BME280;36176;51.506;10.272;2023-07-13T09:41:54;99444.53;;;27.72;34.10
50282;BME280;36176;51.506;10.272;2023-07-13T09:44:34;99440.44;;;28.14;33.40
50282;BME280;36176;51.506;10.272;2023-07-13T09:47:02;99448.16;;;28.55;34.99
50282;BME280;36176;51.506;10.272;2023-07-13T09:49:34;99445.03;;;28.73;32.21
50282;BME280;36176;51.506;10.272;2023-07-13T09:52:07;99445.31;;;28.63;32.98
50282;BME280;36176;51.506;10.272;2023-07-13T09:54:37;99445.72;;;28.60;31.81
50282;BME280;36176;51.506;10.272;2023-07-13T09:57:34;99450.47;;;28.73;31.91
50282;BME280;36176;51.506;10.272;2023-07-13T10:00:28;99449.81;;;28.86;32.32
50282;BME280;36176;51.506;10.272;2023-07-13T10:03:15;99450.53;;;29.31;31.80
50282;BME280;36176;51.506;10.272;2023-07-13T10:05:45;99450.69;;;29.44;32.93
50282;BME280;36176;51.506;10.272;2023-07-13T10:08:24;99459.72;;;29.66;31.71
50282;BME280;36176;51.506;10.272;2023-07-13T10:10:57;99455.50;;;29.85;30.71
50282;BME280;36176;51.506;10.272;2023-07-13T10:13:28;99457.69;;;29.96;31.89
50282;BME280;36176;51.506;10.272;2023-07-13T10:15:57;99449.91;;;29.29;32.21
50282;BME280;36176;51.506;10.272;2023-07-13T10:18:27;99450.31;;;28.74;32.19
50282;BME280;36176;51.506;10.272;2023-07-13T10:21:18;99458.66;;;28.73;32.75
50282;BME280;36176;51.506;10.272;2023-07-13T10:24:00;99448.59;;;28.43;33.86
50282;BME280;36176;51.506;10.272;2023-07-13T10:26:33;99445.28;;;28.04;33.21
50282;BME280;36176;51.506;10.272;2023-07-13T10:29:06;99447.50;;;28.23;34.72
50282;BME280;36176;51.506;10.272;2023-07-13T10:31:37;99445.53;;;28.47;32.95
50282;BME280;36176;51.506;10.272;2023-07-13T10:34:09;99457.34;;;28.54;32.70
50282;BME280;36176;51.506;10.272;2023-07-13T10:36:44;99451.50;;;28.42;33.63
50282;BME280;36176;51.506;10.272;2023-07-13T10:39:18;99450.28;;;28.00;33.90
50282;BME280;36176;51.506;10.272;2023-07-13T10:41:50;99457.81;;;27.52;35.29
50282;BME280;36176;51.506;10.272;2023-07-13T10:44:28;99453.19;;;26.98;35.20
50282;BME280;36176;51.506;10.272;2023-07-13T10:47:08;99451.66;;;26.64;35.76
50282;BME280;36176;51.506;10.272;2023-07-13T10:49:40;99455.72;;;26.13;36.06
50282;BME280;36176;51.506;10.272;2023-07-13T10:52:42;99459.47;;;25.79;36.44
50282;BME280;36176;51.506;10.272;2023-07-13T10:58:29;99472.66;;;26.23;36.51
50282;BME280;36176;51.506;10.272;2023-07-13T11:03:32;99472.84;;;25.80;38.30
50282;BME280;36176;51.506;10.272;2023-07-13T11:11:37;99467.94;;;25.84;36.63
50282;BME280;36176;51.506;10.272;2023-07-13T11:14:27;99461.34;;;25.70;37.86
50282;BME280;36176;51.506;10.272;2023-07-13T11:16:54;99469.13;;;25.65;38.23
50282;BME280;36176;51.506;10.272;2023-07-13T11:25:02;99454.31;;;27.20;34.97
50282;BME280;36176;51.506;10.272;2023-07-13T11:27:52;99452.53;;;27.50;34.63
50282;BME280;36176;51.506;10.272;2023-07-13T11:30:25;99454.66;;;27.40;34.48
50282;BME280;36176;51.506;10.272;2023-07-13T11:33:56;99438.53;;;27.07;35.93
50282;BME280;36176;51.506;10.272;2023-07-13T11:36:06;99441.13;;;27.32;35.40
50282;BME280;36176;51.506;10.272;2023-07-13T11:38:57;99435.91;;;27.68;34.26
50282;BME280;36176;51.506;10.272;2023-07-13T11:41:37;99443.16;;;27.53;34.68
50282;BME280;36176;51.506;10.272;2023-07-13T11:44:14;99443.78;;;27.40;35.54
50282;BME280;36176;51.506;10.272;2023-07-13T11:46:47;99439.38;;;27.08;35.67
50282;BME280;36176;51.506;10.272;2023-07-13T11:49:20;99442.78;;;26.79;34.02
50282;BME280;36176;51.506;10.272;2023-07-13T11:51:51;99440.50;;;26.43;35.70
50282;BME280;36176;51.506;10.272;2023-07-13T11:54:46;99440.34;;;26.92;34.53
50282;BME280;36176;51.506;10.272;2023-07-13T11:57:36;99443.97;;;27.62;33.78
50282;BME280;36176;51.506;10.272;2023-07-13T12:00:15;99443.16;;;28.29;32.84
50282;BME280;36176;51.506;10.272;2023-07-13T12:02:48;99444.97;;;28.51;32.29
50282;BME280;36176;51.506;10.272;2023-07-13T12:05:18;99443.81;;;28.75;34.67
50282;BME280;36176;51.506;10.272;2023-07-13T12:07:48;99434.38;;;28.78;33.77
50282;BME280;36176;51.506;10.272;2023-07-13T12:10:30;99439.22;;;28.61;33.01
50282;BME280;36176;51.506;10.272;2023-07-13T12:13:05;99447.00;;;28.05;34.02
50282;BME280;36176;51.506;10.272;2023-07-13T12:15:41;99442.16;;;27.54;33.84
50282;BME280;36176;51.506;10.272;2023-07-13T12:18:13;99444.47;;;27.11;35.85
50282;BME280;36176;51.506;10.272;2023-07-13T12:20:41;99445.78;;;26.92;34.91
50282;BME280;36176;51.506;10.272;2023-07-13T12:23:23;99453.44;;;26.88;34.59
50282;BME280;36176;51.506;10.272;2023-07-13T12:25:52;99443.06;;;26.92;34.29
50282;BME280;36176;51.506;10.272;2023-07-13T12:28:22;99442.16;;;27.54;33.64
50282;BME280;36176;51.506;10.272;2023-07-13T12:30:57;99442.78;;;28.02;33.38
50282;BME280;36176;51.506;10.272;2023-07-13T12:33:28;99450.09;;;28.02;33.03
50282;BME280;36176;51.506;10.272;2023-07-13T12:35:56;99448.38;;;27.86;33.56
50282;BME280;36176;51.506;10.272;2023-07-13T12:38:27;99440.03;;;27.41;31.98
50282;BME280;36176;51.506;10.272;2023-07-13T12:40:54;99444.97;;;26.83;33.63
50282;BME280;36176;51.506;10.272;2023-07-13T12:43:22;99451.31;;;26.20;35.25
50282;BME280;36176;51.506;10.272;2023-07-13T12:48:25;99458.28;;;25.57;35.89
50282;BME280;36176;51.506;10.272;2023-07-13T12:51:13;99453.00;;;25.31;36.71
50282;BME280;36176;51.506;10.272;2023-07-13T12:53:55;99449.81;;;25.43;37.04
50282;BME280;36176;51.506;10.272;2023-07-13T12:56:25;99447.59;;;25.96;38.77
50282;BME280;36176;51.506;10.272;2023-07-13T12:58:57;99455.22;;;26.17;38.69
50282;BME280;36176;51.506;10.272;2023-07-13T13:01:28;99455.56;;;26.06;36.98
50282;BME280;36176;51.506;10.272;2023-07-13T13:03:56;99451.50;;;26.02;37.23
50282;BME280;36176;51.506;10.272;2023-07-13T13:06:25;99449.13;;;25.91;36.78
50282;BME280;36176;51.506;10.272;2023-07-13T13:08:57;99456.63;;;25.88;36.99
50282;BME280;36176;51.506;10.272;2023-07-13T13:11:27;99459.28;;;25.80;37.07
50282;BME280;36176;51.506;10.272;2023-07-13T13:13:54;99459.31;;;25.72;36.33
50282;BME280;36176;51.506;10.272;2023-07-13T13:18:56;99458.28;;;25.65;36.92
50282;BME280;36176;51.506;10.272;2023-07-13T13:21:24;99457.59;;;25.63;37.14
50282;BME280;36176;51.506;10.272;2023-07-13T13:23:52;99458.59;;;25.62;37.51
50282;BME280;36176;51.506;10.272;2023-07-13T13:26:22;99459.66;;;25.53;36.43
50282;BME280;36176;51.506;10.272;2023-07-13T13:28:50;99462.16;;;25.54;37.48
50282;BME280;36176;51.506;10.272;2023-07-13T13:31:18;99457.72;;;26.19;37.50
50282;BME280;36176;51.506;10.272;2023-07-13T13:33:45;99455.22;;;27.04;36.31